sensor_id;sensor_type;location;lat;lon;timestamp;P1;durP1;ratioP1;P2;durP2;ratioP2
13331;SDS011;6735;51.456;12.626;2022-10-20T00:01:00;7.13;;;5.97;;
13331;SDS011;6735;51.456;12.626;2022-10-20T00:03:26;6.17;;;5.63;;
13331;SDS011;6735;51.456;12.626;2022-10-20T00:05:53;6.47;;;5.97;;
13331;SDS011;6735;51.456;12.626;2022-10-20T00:08:19;6.10;;;5.60;;
13331;SDS011;6735;51.456;12.626;2022-10-20T00:10:51;6.20;;;5.57;;
13331;SDS011;6735;51.456;12.626;2022-10-20T00:13:18;7.00;;;5.90;;
13331;SDS011;6735;51.456;12.626;2022-10-20T00:15:47;6.40;;;5.80;;
13331;SDS011;6735;51.456;12.626;2022-10-20T00:18:14;6.90;;;5.60;;
13331;SDS011;6735;51.456;12.626;2022-10-20T00:20:39;7.60;;;5.70;;
13331;SDS011;6735;51.456;12.626;2022-10-20T00:23:05;8.77;;;5.20;;
13331;SDS011;6735;51.456;12.626;2022-10-20T00:25:30;6.13;;;5.50;;
13331;SDS011;6735;51.456;12.626;2022-10-20T00:27:56;5.93;;;5.33;;
13331;SDS011;6735;51.456;12.626;2022-10-20T00:30:21;5.57;;;5.13;;
13331;SDS011;6735;51.456;12.626;2022-10-20T00:32:47;5.27;;;4.87;;
13331;SDS011;6735;51.456;12.626;2022-10-20T00:35:12;8.20;;;5.03;;
13331;SDS011;6735;51.456;12.626;2022-10-20T00:37:38;5.40;;;4.90;;
13331;SDS011;6735;51.456;12.626;2022-10-20T00:40:03;5.50;;;4.70;;
13331;SDS011;6735;51.456;12.626;2022-10-20T00:42:29;5.53;;;5.13;;
13331;SDS011;6735;51.456;12.626;2022-10-20T00:44:56;5.57;;;5.07;;
13331;SDS011;6735;51.456;12.626;2022-10-20T00:47:34;6.23;;;5.67;;
13331;SDS011;6735;51.456;12.626;2022-10-20T00:50:26;5.43;;;5.03;;
13331;SDS011;6735;51.456;12.626;2022-10-20T00:52:58;5.40;;;4.90;;
13331;SDS011;6735;51.456;12.626;2022-10-20T00:55:26;6.80;;;5.10;;
13331;SDS011;6735;51.456;12.626;2022-10-20T00:57:54;5.50;;;4.97;;
13331;SDS011;6735;51.456;12.626;2022-10-20T01:00:21;5.57;;;5.07;;
13331;SDS011;6735;51.456;12.626;2022-10-20T01:02:49;5.57;;;4.97;;
13331;SDS011;6735;51.456;12.626;2022-10-20T01:05:16;5.00;;;4.60;;
13331;SDS011;6735;51.456;12.626;2022-10-20T01:07:42;5.70;;;5.03;;
13331;SDS011;6735;51.456;12.626;2022-10-20T01:10:08;6.47;;;5.60;;
13331;SDS011;6735;51.456;12.626;2022-10-20T01:12:37;5.97;;;5.47;;
13331;SDS011;6735;51.456;12.626;2022-10-20T01:15:14;9.73;;;6.53;;
13331;SDS011;6735;51.456;12.626;2022-10-20T01:17:55;7.47;;;6.17;;
13331;SDS011;6735;51.456;12.626;2022-10-20T01:20:49;7.00;;;5.93;;
13331;SDS011;6735;51.456;12.626;2022-10-20T01:26:30;6.53;;;5.93;;
13331;SDS011;6735;51.456;12.626;2022-10-20T01:31:40;7.30;;;5.80;;
13331;SDS011;6735;51.456;12.626;2022-10-20T01:34:21;6.30;;;5.70;;
13331;SDS011;6735;51.456;12.626;2022-10-20T01:39:28;6.00;;;5.50;;
13331;SDS011;6735;51.456;12.626;2022-10-20T01:42:00;6.07;;;5.57;;
13331;SDS011;6735;51.456;12.626;2022-10-20T01:44:32;5.90;;;5.33;;
13331;SDS011;6735;51.456;12.626;2022-10-20T01:47:00;5.67;;;5.27;;
13331;SDS011;6735;51.456;12.626;2022-10-20T01:49:27;6.13;;;5.53;;
13331;SDS011;6735;51.456;12.626;2022-10-20T01:51:53;6.87;;;5.70;;
13331;SDS011;6735;51.456;12.626;2022-10-20T01:54:24;5.53;;;5.03;;
13331;SDS011;6735;51.456;12.626;2022-10-20T01:57:36;6.07;;;5.57;;
13331;SDS011;6735;51.456;12.626;2022-10-20T01:59:59;7.47;;;5.17;;
13331;SDS011;6735;51.456;12.626;2022-10-20T02:02:35;6.17;;;5.23;;
13331;SDS011;6735;51.456;12.626;2022-10-20T02:07:42;7.07;;;5.67;;
13331;SDS011;6735;51.456;12.626;2022-10-20T02:10:09;5.73;;;5.17;;
13331;SDS011;6735;51.456;12.626;2022-10-20T02:12:40;6.43;;;5.63;;
13331;SDS011;6735;51.456;12.626;2022-10-20T02:15:09;6.10;;;5.60;;
13331;SDS011;6735;51.456;12.626;2022-10-20T02:17:38;6.07;;;5.50;;
13331;SDS011;6735;51.456;12.626;2022-10-20T02:20:06;6.87;;;5.67;;
13331;SDS011;6735;51.456;12.626;2022-10-20T02:22:34;6.60;;;5.83;;
13331;SDS011;6735;51.456;12.626;2022-10-20T02:24:59;6.17;;;5.67;;
13331;SDS011;6735;51.456;12.626;2022-10-20T02:27:29;6.20;;;5.60;;
13331;SDS011;6735;51.456;12.626;2022-10-20T02:30:06;6.03;;;5.43;;
13331;SDS011;6735;51.456;12.626;2022-10-20T02:32:35;6.03;;;5.20;;
13331;SDS011;6735;51.456;12.626;2022-10-20T02:35:03;5.70;;;5.17;;
13331;SDS011;6735;51.456;12.626;2022-10-20T02:37:41;5.30;;;4.90;;
13331;SDS011;6735;51.456;12.626;2022-10-20T02:40:06;4.87;;;4.47;;
13331;SDS011;6735;51.456;12.626;2022-10-20T02:42:32;7.20;;;4.93;;
13331;SDS011;6735;51.456;12.626;2022-10-20T02:44:58;5.23;;;4.83;;
13331;SDS011;6735;51.456;12.626;2022-10-20T02:47:23;5.77;;;5.27;;
13331;SDS011;6735;51.456;12.626;2022-10-20T02:49:49;5.73;;;5.07;;
13331;SDS011;6735;51.456;12.626;2022-10-20T02:52:14;5.83;;;5.33;;
13331;SDS011;6735;51.456;12.626;2022-10-20T02:54:40;5.90;;;5.40;;
13331;SDS011;6735;51.456;12.626;2022-10-20T02:57:05;5.70;;;5.13;;
13331;SDS011;6735;51.456;12.626;2022-10-20T02:59:31;6.17;;;5.60;;
13331;SDS011;6735;51.456;12.626;2022-10-20T03:01:57;5.83;;;5.37;;
13331;SDS011;6735;51.456;12.626;2022-10-20T03:04:22;5.80;;;5.33;;
13331;SDS011;6735;51.456;12.626;2022-10-20T03:06:48;6.27;;;5.67;;
13331;SDS011;6735;51.456;12.626;2022-10-20T03:09:13;6.63;;;5.97;;
13331;SDS011;6735;51.456;12.626;2022-10-20T03:11:39;7.20;;;6.50;;
13331;SDS011;6735;51.456;12.626;2022-10-20T03:14:04;8.27;;;7.00;;
13331;SDS011;6735;51.456;12.626;2022-10-20T03:16:30;7.13;;;6.43;;
13331;SDS011;6735;51.456;12.626;2022-10-20T03:18:55;7.83;;;7.07;;
13331;SDS011;6735;51.456;12.626;2022-10-20T03:21:21;7.73;;;7.03;;
13331;SDS011;6735;51.456;12.626;2022-10-20T03:23:47;8.13;;;7.43;;
13331;SDS011;6735;51.456;12.626;2022-10-20T03:26:12;10.80;;;7.93;;
13331;SDS011;6735;51.456;12.626;2022-10-20T03:28:38;10.67;;;8.37;;
13331;SDS011;6735;51.456;12.626;2022-10-20T03:31:05;10.83;;;8.47;;
13331;SDS011;6735;51.456;12.626;2022-10-20T03:33:31;9.20;;;8.40;;
13331;SDS011;6735;51.456;12.626;2022-10-20T03:35:56;10.07;;;8.67;;
13331;SDS011;6735;51.456;12.626;2022-10-20T03:38:22;10.50;;;8.97;;
13331;SDS011;6735;51.456;12.626;2022-10-20T03:40:48;10.40;;;9.37;;
13331;SDS011;6735;51.456;12.626;2022-10-20T03:43:13;12.20;;;9.23;;
13331;SDS011;6735;51.456;12.626;2022-10-20T03:45:39;10.43;;;9.40;;
13331;SDS011;6735;51.456;12.626;2022-10-20T03:48:06;10.47;;;9.40;;
13331;SDS011;6735;51.456;12.626;2022-10-20T03:50:31;10.10;;;9.10;;
13331;SDS011;6735;51.456;12.626;2022-10-20T03:52:57;10.83;;;8.60;;
13331;SDS011;6735;51.456;12.626;2022-10-20T03:55:22;10.13;;;9.03;;
13331;SDS011;6735;51.456;12.626;2022-10-20T03:57:48;10.20;;;9.20;;
13331;SDS011;6735;51.456;12.626;2022-10-20T04:00:13;10.43;;;9.07;;
13331;SDS011;6735;51.456;12.626;2022-10-20T04:02:40;9.73;;;8.83;;
13331;SDS011;6735;51.456;12.626;2022-10-20T04:05:14;11.77;;;9.20;;
13331;SDS011;6735;51.456;12.626;2022-10-20T04:07:42;13.23;;;9.10;;
13331;SDS011;6735;51.456;12.626;2022-10-20T04:10:08;10.70;;;9.57;;
13331;SDS011;6735;51.456;12.626;2022-10-20T04:12:35;12.03;;;9.73;;
13331;SDS011;6735;51.456;12.626;2022-10-20T04:15:01;13.23;;;9.67;;
13331;SDS011;6735;51.456;12.626;2022-10-20T04:17:27;10.47;;;9.40;;
13331;SDS011;6735;51.456;12.626;2022-10-20T04:19:53;9.77;;;8.93;;
13331;SDS011;6735;51.456;12.626;2022-10-20T04:22:19;11.30;;;9.37;;
13331;SDS011;6735;51.456;12.626;2022-10-20T04:24:44;10.40;;;9.40;;
13331;SDS011;6735;51.456;12.626;2022-10-20T04:27:10;10.80;;;9.70;;
13331;SDS011;6735;51.456;12.626;2022-10-20T04:29:35;11.63;;;10.03;;
13331;SDS011;6735;51.456;12.626;2022-10-20T04:32:01;10.70;;;9.53;;
13331;SDS011;6735;51.456;12.626;2022-10-20T04:34:27;10.27;;;9.30;;
13331;SDS011;6735;51.456;12.626;2022-10-20T04:36:52;10.47;;;9.37;;
13331;SDS011;6735;51.456;12.626;2022-10-20T04:39:18;10.57;;;9.47;;
13331;SDS011;6735;51.456;12.626;2022-10-20T04:41:44;10.13;;;9.13;;
13331;SDS011;6735;51.456;12.626;2022-10-20T04:44:09;11.50;;;9.83;;
13331;SDS011;6735;51.456;12.626;2022-10-20T04:46:35;10.77;;;9.53;;
13331;SDS011;6735;51.456;12.626;2022-10-20T04:49:00;12.13;;;10.10;;
13331;SDS011;6735;51.456;12.626;2022-10-20T04:51:26;11.50;;;10.40;;
13331;SDS011;6735;51.456;12.626;2022-10-20T04:53:52;10.67;;;9.67;;
13331;SDS011;6735;51.456;12.626;2022-10-20T04:56:19;11.73;;;10.53;;
13331;SDS011;6735;51.456;12.626;2022-10-20T04:58:49;11.20;;;10.10;;
13331;SDS011;6735;51.456;12.626;2022-10-20T05:01:16;10.70;;;9.70;;
13331;SDS011;6735;51.456;12.626;2022-10-20T05:03:42;11.23;;;10.03;;
13331;SDS011;6735;51.456;12.626;2022-10-20T05:06:09;10.80;;;9.77;;
13331;SDS011;6735;51.456;12.626;2022-10-20T05:08:39;11.40;;;10.30;;
13331;SDS011;6735;51.456;12.626;2022-10-20T05:11:06;11.10;;;9.93;;
13331;SDS011;6735;51.456;12.626;2022-10-20T05:13:32;11.80;;;10.10;;
13331;SDS011;6735;51.456;12.626;2022-10-20T05:15:58;12.27;;;9.97;;
13331;SDS011;6735;51.456;12.626;2022-10-20T05:18:23;13.10;;;10.23;;
13331;SDS011;6735;51.456;12.626;2022-10-20T05:20:49;10.53;;;9.53;;
13331;SDS011;6735;51.456;12.626;2022-10-20T05:23:14;13.13;;;9.63;;
13331;SDS011;6735;51.456;12.626;2022-10-20T05:25:40;10.20;;;9.27;;
13331;SDS011;6735;51.456;12.626;2022-10-20T05:28:05;11.80;;;10.60;;
13331;SDS011;6735;51.456;12.626;2022-10-20T05:30:34;10.67;;;9.53;;
13331;SDS011;6735;51.456;12.626;2022-10-20T05:33:00;11.40;;;9.17;;
13331;SDS011;6735;51.456;12.626;2022-10-20T05:35:26;9.40;;;8.57;;
13331;SDS011;6735;51.456;12.626;2022-10-20T05:37:52;12.37;;;9.63;;
13331;SDS011;6735;51.456;12.626;2022-10-20T05:40:18;10.80;;;9.63;;
13331;SDS011;6735;51.456;12.626;2022-10-20T05:42:43;10.10;;;9.07;;
13331;SDS011;6735;51.456;12.626;2022-10-20T05:45:09;12.03;;;9.60;;
13331;SDS011;6735;51.456;12.626;2022-10-20T05:47:34;9.97;;;8.97;;
13331;SDS011;6735;51.456;12.626;2022-10-20T05:50:00;11.70;;;9.50;;
13331;SDS011;6735;51.456;12.626;2022-10-20T05:52:25;11.57;;;9.63;;
13331;SDS011;6735;51.456;12.626;2022-10-20T05:54:51;9.90;;;8.97;;
13331;SDS011;6735;51.456;12.626;2022-10-20T05:57:16;10.60;;;8.97;;
13331;SDS011;6735;51.456;12.626;2022-10-20T05:59:42;9.57;;;8.57;;
13331;SDS011;6735;51.456;12.626;2022-10-20T06:02:08;9.80;;;8.90;;
13331;SDS011;6735;51.456;12.626;2022-10-20T06:04:37;9.30;;;8.33;;
13331;SDS011;6735;51.456;12.626;2022-10-20T06:07:03;10.47;;;9.37;;
13331;SDS011;6735;51.456;12.626;2022-10-20T06:09:34;9.97;;;9.07;;
13331;SDS011;6735;51.456;12.626;2022-10-20T06:12:00;9.73;;;8.30;;
13331;SDS011;6735;51.456;12.626;2022-10-20T06:14:26;11.70;;;9.83;;
13331;SDS011;6735;51.456;12.626;2022-10-20T06:16:52;10.57;;;8.60;;
13331;SDS011;6735;51.456;12.626;2022-10-20T06:19:18;10.43;;;9.00;;
13331;SDS011;6735;51.456;12.626;2022-10-20T06:21:44;10.63;;;9.63;;
13331;SDS011;6735;51.456;12.626;2022-10-20T06:24:10;13.47;;;9.40;;
13331;SDS011;6735;51.456;12.626;2022-10-20T06:26:36;11.87;;;9.23;;
13331;SDS011;6735;51.456;12.626;2022-10-20T06:29:04;10.60;;;9.60;;
13331;SDS011;6735;51.456;12.626;2022-10-20T06:31:32;10.67;;;9.67;;
13331;SDS011;6735;51.456;12.626;2022-10-20T06:34:03;12.20;;;10.10;;
13331;SDS011;6735;51.456;12.626;2022-10-20T06:36:30;11.90;;;10.70;;
13331;SDS011;6735;51.456;12.626;2022-10-20T06:38:59;12.57;;;10.00;;
13331;SDS011;6735;51.456;12.626;2022-10-20T06:41:25;11.43;;;10.33;;
13331;SDS011;6735;51.456;12.626;2022-10-20T06:43:51;11.33;;;10.13;;
13331;SDS011;6735;51.456;12.626;2022-10-20T06:46:25;11.43;;;10.23;;
13331;SDS011;6735;51.456;12.626;2022-10-20T06:48:52;12.63;;;10.00;;
13331;SDS011;6735;51.456;12.626;2022-10-20T06:51:18;11.77;;;8.63;;
13331;SDS011;6735;51.456;12.626;2022-10-20T06:53:46;12.83;;;10.60;;
13331;SDS011;6735;51.456;12.626;2022-10-20T06:56:16;11.30;;;10.10;;
13331;SDS011;6735;51.456;12.626;2022-10-20T06:58:44;13.23;;;10.50;;
13331;SDS011;6735;51.456;12.626;2022-10-20T07:01:15;12.83;;;10.13;;
13331;SDS011;6735;51.456;12.626;2022-10-20T07:03:56;13.90;;;10.00;;
13331;SDS011;6735;51.456;12.626;2022-10-20T07:06:27;10.87;;;9.83;;
13331;SDS011;6735;51.456;12.626;2022-10-20T07:08:58;10.70;;;9.60;;
13331;SDS011;6735;51.456;12.626;2022-10-20T07:11:25;10.13;;;9.13;;
13331;SDS011;6735;51.456;12.626;2022-10-20T07:13:52;10.50;;;9.60;;
13331;SDS011;6735;51.456;12.626;2022-10-20T07:16:20;9.70;;;8.90;;
13331;SDS011;6735;51.456;12.626;2022-10-20T07:18:47;9.27;;;8.47;;
13331;SDS011;6735;51.456;12.626;2022-10-20T07:21:14;9.90;;;9.00;;
13331;SDS011;6735;51.456;12.626;2022-10-20T07:23:41;11.60;;;9.17;;
13331;SDS011;6735;51.456;12.626;2022-10-20T07:26:09;9.23;;;8.37;;
13331;SDS011;6735;51.456;12.626;2022-10-20T07:28:38;9.70;;;8.90;;
13331;SDS011;6735;51.456;12.626;2022-10-20T07:31:07;9.67;;;8.77;;
13331;SDS011;6735;51.456;12.626;2022-10-20T07:33:35;9.07;;;8.23;;
13331;SDS011;6735;51.456;12.626;2022-10-20T07:36:07;8.90;;;8.07;;
13331;SDS011;6735;51.456;12.626;2022-10-20T07:38:37;8.73;;;7.93;;
13331;SDS011;6735;51.456;12.626;2022-10-20T07:41:03;7.97;;;7.37;;
13331;SDS011;6735;51.456;12.626;2022-10-20T07:43:28;7.90;;;7.20;;
13331;SDS011;6735;51.456;12.626;2022-10-20T07:45:54;7.90;;;7.23;;
13331;SDS011;6735;51.456;12.626;2022-10-20T07:48:19;7.30;;;6.80;;
13331;SDS011;6735;51.456;12.626;2022-10-20T07:50:45;8.30;;;7.30;;
13331;SDS011;6735;51.456;12.626;2022-10-20T07:53:10;7.60;;;6.70;;
13331;SDS011;6735;51.456;12.626;2022-10-20T07:55:36;7.67;;;7.07;;
13331;SDS011;6735;51.456;12.626;2022-10-20T07:58:01;10.27;;;6.93;;
13331;SDS011;6735;51.456;12.626;2022-10-20T08:00:27;7.20;;;6.60;;
13331;SDS011;6735;51.456;12.626;2022-10-20T08:02:53;9.63;;;7.10;;
13331;SDS011;6735;51.456;12.626;2022-10-20T08:05:18;7.63;;;6.83;;
13331;SDS011;6735;51.456;12.626;2022-10-20T08:07:44;8.07;;;7.27;;
13331;SDS011;6735;51.456;12.626;2022-10-20T08:10:09;9.13;;;7.03;;
13331;SDS011;6735;51.456;12.626;2022-10-20T08:12:35;7.20;;;6.53;;
13331;SDS011;6735;51.456;12.626;2022-10-20T08:15:01;7.23;;;6.63;;
13331;SDS011;6735;51.456;12.626;2022-10-20T08:17:27;6.83;;;6.23;;
13331;SDS011;6735;51.456;12.626;2022-10-20T08:19:52;6.83;;;6.23;;
13331;SDS011;6735;51.456;12.626;2022-10-20T08:22:18;6.60;;;6.10;;
13331;SDS011;6735;51.456;12.626;2022-10-20T08:24:44;6.40;;;5.90;;
13331;SDS011;6735;51.456;12.626;2022-10-20T08:27:10;7.10;;;6.40;;
13331;SDS011;6735;51.456;12.626;2022-10-20T08:29:36;6.80;;;5.87;;
13331;SDS011;6735;51.456;12.626;2022-10-20T08:32:01;6.70;;;6.00;;
13331;SDS011;6735;51.456;12.626;2022-10-20T08:34:27;6.70;;;6.00;;
13331;SDS011;6735;51.456;12.626;2022-10-20T08:36:52;6.60;;;6.00;;
13331;SDS011;6735;51.456;12.626;2022-10-20T08:39:18;6.37;;;5.77;;
13331;SDS011;6735;51.456;12.626;2022-10-20T08:41:44;6.37;;;5.40;;
13331;SDS011;6735;51.456;12.626;2022-10-20T08:44:14;5.90;;;5.40;;
13331;SDS011;6735;51.456;12.626;2022-10-20T08:46:47;6.20;;;5.60;;
13331;SDS011;6735;51.456;12.626;2022-10-20T08:49:16;6.20;;;5.70;;
13331;SDS011;6735;51.456;12.626;2022-10-20T08:51:47;5.73;;;5.23;;
13331;SDS011;6735;51.456;12.626;2022-10-20T08:54:13;5.70;;;5.20;;
13331;SDS011;6735;51.456;12.626;2022-10-20T08:56:40;6.20;;;5.70;;
13331;SDS011;6735;51.456;12.626;2022-10-20T08:59:20;6.20;;;5.60;;
13331;SDS011;6735;51.456;12.626;2022-10-20T09:01:47;5.60;;;5.10;;
13331;SDS011;6735;51.456;12.626;2022-10-20T09:04:15;6.50;;;5.80;;
13331;SDS011;6735;51.456;12.626;2022-10-20T09:06:46;6.43;;;5.83;;
13331;SDS011;6735;51.456;12.626;2022-10-20T09:09:18;11.90;;;6.00;;
13331;SDS011;6735;51.456;12.626;2022-10-20T09:11:45;9.20;;;5.33;;
13331;SDS011;6735;51.456;12.626;2022-10-20T09:14:11;20.70;;;6.17;;
13331;SDS011;6735;51.456;12.626;2022-10-20T09:16:38;8.40;;;5.33;;
13331;SDS011;6735;51.456;12.626;2022-10-20T09:19:11;10.70;;;5.93;;
13331;SDS011;6735;51.456;12.626;2022-10-20T09:21:43;7.87;;;5.40;;
13331;SDS011;6735;51.456;12.626;2022-10-20T09:24:11;5.80;;;5.30;;
13331;SDS011;6735;51.456;12.626;2022-10-20T09:26:41;5.90;;;5.37;;
13331;SDS011;6735;51.456;12.626;2022-10-20T09:31:40;8.33;;;5.70;;
13331;SDS011;6735;51.456;12.626;2022-10-20T09:34:19;7.03;;;5.57;;
13331;SDS011;6735;51.456;12.626;2022-10-20T09:36:51;7.77;;;5.27;;
13331;SDS011;6735;51.456;12.626;2022-10-20T09:39:49;6.13;;;4.60;;
13331;SDS011;6735;51.456;12.626;2022-10-20T09:44:53;5.00;;;4.70;;
13331;SDS011;6735;51.456;12.626;2022-10-20T09:47:31;5.30;;;4.70;;
13331;SDS011;6735;51.456;12.626;2022-10-20T09:50:03;5.23;;;4.73;;
13331;SDS011;6735;51.456;12.626;2022-10-20T09:52:31;6.10;;;4.93;;
13331;SDS011;6735;51.456;12.626;2022-10-20T09:55:15;4.93;;;4.53;;
13331;SDS011;6735;51.456;12.626;2022-10-20T09:57:53;5.70;;;4.30;;
13331;SDS011;6735;51.456;12.626;2022-10-20T10:00:36;5.10;;;4.70;;
13331;SDS011;6735;51.456;12.626;2022-10-20T10:05:54;6.07;;;4.37;;
13331;SDS011;6735;51.456;12.626;2022-10-20T10:08:23;5.30;;;4.90;;
13331;SDS011;6735;51.456;12.626;2022-10-20T10:11:13;6.37;;;4.30;;
13331;SDS011;6735;51.456;12.626;2022-10-20T10:13:41;4.87;;;4.37;;
13331;SDS011;6735;51.456;12.626;2022-10-20T10:16:10;6.00;;;4.50;;
13331;SDS011;6735;51.456;12.626;2022-10-20T10:18:38;4.77;;;4.37;;
13331;SDS011;6735;51.456;12.626;2022-10-20T10:21:08;5.50;;;4.47;;
13331;SDS011;6735;51.456;12.626;2022-10-20T10:23:36;5.30;;;4.00;;
13331;SDS011;6735;51.456;12.626;2022-10-20T10:29:02;4.67;;;4.27;;
13331;SDS011;6735;51.456;12.626;2022-10-20T10:31:28;4.60;;;4.13;;
13331;SDS011;6735;51.456;12.626;2022-10-20T10:36:36;4.50;;;3.90;;
13331;SDS011;6735;51.456;12.626;2022-10-20T10:39:06;5.17;;;4.10;;
13331;SDS011;6735;51.456;12.626;2022-10-20T10:44:10;4.60;;;4.20;;
13331;SDS011;6735;51.456;12.626;2022-10-20T10:53:06;4.40;;;4.00;;
13331;SDS011;6735;51.456;12.626;2022-10-20T10:56:18;5.40;;;5.00;;
13331;SDS011;6735;51.456;12.626;2022-10-20T11:04:37;5.70;;;5.20;;
13331;SDS011;6735;51.456;12.626;2022-10-20T11:12:54;5.77;;;5.27;;
13331;SDS011;6735;51.456;12.626;2022-10-20T11:24:03;5.67;;;5.10;;
13331;SDS011;6735;51.456;12.626;2022-10-20T11:26:39;5.60;;;5.10;;
13331;SDS011;6735;51.456;12.626;2022-10-20T11:29:13;5.17;;;4.80;;
13331;SDS011;6735;51.456;12.626;2022-10-20T11:34:15;6.77;;;5.07;;
13331;SDS011;6735;51.456;12.626;2022-10-20T11:36:50;5.30;;;4.90;;
13331;SDS011;6735;51.456;12.626;2022-10-20T11:41:56;4.90;;;4.50;;
13331;SDS011;6735;51.456;12.626;2022-10-20T11:44:29;5.10;;;4.70;;
13331;SDS011;6735;51.456;12.626;2022-10-20T11:47:11;5.47;;;4.93;;
13331;SDS011;6735;51.456;12.626;2022-10-20T11:49:39;6.03;;;4.60;;
13331;SDS011;6735;51.456;12.626;2022-10-20T11:58:20;6.37;;;4.63;;
13331;SDS011;6735;51.456;12.626;2022-10-20T12:04:12;4.70;;;4.27;;
13331;SDS011;6735;51.456;12.626;2022-10-20T12:10:18;5.80;;;4.80;;
13331;SDS011;6735;51.456;12.626;2022-10-20T12:13:20;5.33;;;4.83;;
13331;SDS011;6735;51.456;12.626;2022-10-20T12:15:55;5.13;;;4.63;;
13331;SDS011;6735;51.456;12.626;2022-10-20T12:18:28;6.20;;;4.57;;
13331;SDS011;6735;51.456;12.626;2022-10-20T12:28:57;4.80;;;4.40;;
13331;SDS011;6735;51.456;12.626;2022-10-20T12:31:24;6.50;;;4.47;;
13331;SDS011;6735;51.456;12.626;2022-10-20T12:34:21;5.60;;;4.47;;
13331;SDS011;6735;51.456;12.626;2022-10-20T12:36:47;4.97;;;4.53;;
13331;SDS011;6735;51.456;12.626;2022-10-20T12:39:14;6.17;;;4.60;;
13331;SDS011;6735;51.456;12.626;2022-10-20T12:41:44;5.83;;;5.00;;
13331;SDS011;6735;51.456;12.626;2022-10-20T12:44:25;5.40;;;4.83;;
13331;SDS011;6735;51.456;12.626;2022-10-20T12:46:56;5.33;;;4.83;;
13331;SDS011;6735;51.456;12.626;2022-10-20T12:49:29;6.53;;;4.20;;
13331;SDS011;6735;51.456;12.626;2022-10-20T12:51:57;5.63;;;4.90;;
13331;SDS011;6735;51.456;12.626;2022-10-20T12:54:28;4.50;;;4.10;;
13331;SDS011;6735;51.456;12.626;2022-10-20T12:59:54;4.40;;;4.00;;
13331;SDS011;6735;51.456;12.626;2022-10-20T13:04:52;5.17;;;4.53;;
13331;SDS011;6735;51.456;12.626;2022-10-20T13:12:51;9.00;;;5.13;;
13331;SDS011;6735;51.456;12.626;2022-10-20T13:15:19;4.53;;;4.13;;
13331;SDS011;6735;51.456;12.626;2022-10-20T13:17:50;4.23;;;3.83;;
13331;SDS011;6735;51.456;12.626;2022-10-20T13:20:36;7.47;;;4.50;;
13331;SDS011;6735;51.456;12.626;2022-10-20T13:23:24;5.60;;;4.23;;
13331;SDS011;6735;51.456;12.626;2022-10-20T13:26:22;6.40;;;4.60;;
13331;SDS011;6735;51.456;12.626;2022-10-20T13:28:54;4.23;;;3.90;;
13331;SDS011;6735;51.456;12.626;2022-10-20T13:31:35;5.07;;;4.00;;
13331;SDS011;6735;51.456;12.626;2022-10-20T13:34:38;4.90;;;4.10;;
13331;SDS011;6735;51.456;12.626;2022-10-20T13:37:42;4.43;;;3.70;;
13331;SDS011;6735;51.456;12.626;2022-10-20T13:46:01;4.67;;;4.27;;
13331;SDS011;6735;51.456;12.626;2022-10-20T13:51:34;4.67;;;4.20;;
13331;SDS011;6735;51.456;12.626;2022-10-20T13:54:06;4.13;;;3.73;;
13331;SDS011;6735;51.456;12.626;2022-10-20T13:56:40;4.10;;;3.70;;
13331;SDS011;6735;51.456;12.626;2022-10-20T14:01:38;6.80;;;4.10;;
13331;SDS011;6735;51.456;12.626;2022-10-20T14:04:23;4.13;;;3.53;;
13331;SDS011;6735;51.456;12.626;2022-10-20T14:07:05;4.40;;;3.80;;
13331;SDS011;6735;51.456;12.626;2022-10-20T14:09:37;5.10;;;3.70;;
13331;SDS011;6735;51.456;12.626;2022-10-20T14:12:04;4.00;;;3.60;;
13331;SDS011;6735;51.456;12.626;2022-10-20T14:14:33;6.03;;;3.53;;
13331;SDS011;6735;51.456;12.626;2022-10-20T14:19:29;4.20;;;3.80;;
13331;SDS011;6735;51.456;12.626;2022-10-20T14:21:58;5.73;;;3.67;;
13331;SDS011;6735;51.456;12.626;2022-10-20T14:24:40;4.13;;;3.70;;
13331;SDS011;6735;51.456;12.626;2022-10-20T14:27:13;7.63;;;4.20;;
13331;SDS011;6735;51.456;12.626;2022-10-20T14:29:48;4.17;;;3.63;;
13331;SDS011;6735;51.456;12.626;2022-10-20T14:32:17;4.23;;;3.83;;
13331;SDS011;6735;51.456;12.626;2022-10-20T14:37:31;4.87;;;3.93;;
13331;SDS011;6735;51.456;12.626;2022-10-20T14:40:00;3.73;;;3.43;;
13331;SDS011;6735;51.456;12.626;2022-10-20T14:42:29;7.53;;;4.43;;
13331;SDS011;6735;51.456;12.626;2022-10-20T14:44:56;5.50;;;3.87;;
13331;SDS011;6735;51.456;12.626;2022-10-20T14:47:31;6.20;;;3.90;;
13331;SDS011;6735;51.456;12.626;2022-10-20T14:50:05;5.40;;;3.80;;
13331;SDS011;6735;51.456;12.626;2022-10-20T14:52:32;4.47;;;3.80;;
13331;SDS011;6735;51.456;12.626;2022-10-20T14:55:24;5.07;;;4.57;;
13331;SDS011;6735;51.456;12.626;2022-10-20T14:57:51;5.33;;;4.20;;
13331;SDS011;6735;51.456;12.626;2022-10-20T15:00:27;4.53;;;3.80;;
13331;SDS011;6735;51.456;12.626;2022-10-20T15:02:59;5.60;;;4.30;;
13331;SDS011;6735;51.456;12.626;2022-10-20T15:05:32;7.00;;;4.80;;
13331;SDS011;6735;51.456;12.626;2022-10-20T15:08:36;4.83;;;4.10;;
13331;SDS011;6735;51.456;12.626;2022-10-20T15:10:55;6.30;;;5.70;;
13331;SDS011;6735;51.456;12.626;2022-10-20T15:13:26;4.90;;;4.40;;
13331;SDS011;6735;51.456;12.626;2022-10-20T15:15:53;4.57;;;3.97;;
13331;SDS011;6735;51.456;12.626;2022-10-20T15:18:20;4.67;;;4.30;;
13331;SDS011;6735;51.456;12.626;2022-10-20T15:20:48;6.43;;;4.40;;
13331;SDS011;6735;51.456;12.626;2022-10-20T15:23:18;5.37;;;4.00;;
13331;SDS011;6735;51.456;12.626;2022-10-20T15:25:53;5.07;;;4.57;;
13331;SDS011;6735;51.456;12.626;2022-10-20T15:28:21;5.20;;;4.43;;
13331;SDS011;6735;51.456;12.626;2022-10-20T15:30:50;6.47;;;5.20;;
13331;SDS011;6735;51.456;12.626;2022-10-20T15:33:16;8.77;;;4.50;;
13331;SDS011;6735;51.456;12.626;2022-10-20T15:35:42;7.67;;;4.13;;
13331;SDS011;6735;51.456;12.626;2022-10-20T15:38:11;5.10;;;4.03;;
13331;SDS011;6735;51.456;12.626;2022-10-20T15:40:37;5.30;;;4.20;;
13331;SDS011;6735;51.456;12.626;2022-10-20T15:43:03;5.70;;;4.60;;
13331;SDS011;6735;51.456;12.626;2022-10-20T15:45:30;5.30;;;4.80;;
13331;SDS011;6735;51.456;12.626;2022-10-20T15:48:02;6.37;;;5.30;;
13331;SDS011;6735;51.456;12.626;2022-10-20T15:50:28;6.87;;;6.17;;
13331;SDS011;6735;51.456;12.626;2022-10-20T15:52:54;7.60;;;5.93;;
13331;SDS011;6735;51.456;12.626;2022-10-20T15:55:30;6.43;;;5.60;;
13331;SDS011;6735;51.456;12.626;2022-10-20T15:57:58;7.30;;;6.60;;
13331;SDS011;6735;51.456;12.626;2022-10-20T16:00:24;6.93;;;6.20;;
13331;SDS011;6735;51.456;12.626;2022-10-20T16:02:51;9.53;;;8.03;;
13331;SDS011;6735;51.456;12.626;2022-10-20T16:05:17;8.43;;;7.20;;
13331;SDS011;6735;51.456;12.626;2022-10-20T16:07:45;9.07;;;6.97;;
13331;SDS011;6735;51.456;12.626;2022-10-20T16:10:10;8.00;;;7.20;;
13331;SDS011;6735;51.456;12.626;2022-10-20T16:12:37;10.93;;;8.77;;
13331;SDS011;6735;51.456;12.626;2022-10-20T16:15:04;11.63;;;10.53;;
13331;SDS011;6735;51.456;12.626;2022-10-20T16:17:31;10.43;;;9.23;;
13331;SDS011;6735;51.456;12.626;2022-10-20T16:19:56;13.47;;;11.23;;
13331;SDS011;6735;51.456;12.626;2022-10-20T16:22:22;12.03;;;8.97;;
13331;SDS011;6735;51.456;12.626;2022-10-20T16:24:48;16.57;;;13.53;;
13331;SDS011;6735;51.456;12.626;2022-10-20T16:27:14;13.77;;;12.07;;
13331;SDS011;6735;51.456;12.626;2022-10-20T16:29:40;12.90;;;11.53;;
13331;SDS011;6735;51.456;12.626;2022-10-20T16:32:05;14.63;;;11.07;;
13331;SDS011;6735;51.456;12.626;2022-10-20T16:34:31;11.07;;;9.97;;
13331;SDS011;6735;51.456;12.626;2022-10-20T16:36:56;16.13;;;13.43;;
13331;SDS011;6735;51.456;12.626;2022-10-20T16:39:22;15.30;;;13.70;;
13331;SDS011;6735;51.456;12.626;2022-10-20T16:41:47;19.23;;;14.40;;
13331;SDS011;6735;51.456;12.626;2022-10-20T16:44:13;13.03;;;11.20;;